Time;durP1;ratioP1;P1;durP2;ratioP2;P2;SDS_P1;SDS_P2;PMS_P1;PMS_P2;Temp;Humidity;BMP_temperature;BMP_pressure;BME280_temperature;BME280_humidity;BME280_pressure;Samples;Min_cycle;Max_cycle;Signal;HPM_P1;HPM_P2
2021/03/07 00:01:36;;;;;;;18.65;12.45;;;1.40;50.80;;;;;;4995509;28;20394;-72
2021/03/07 00:04:02;;;;;;;19.50;11.80;;;1.30;51.90;;;;;;4995515;28;20543;-72
2021/03/07 00:06:27;;;;;;;22.97;11.87;;;1.20;51.60;;;;;;4995542;28;20375;-72
2021/03/07 00:08:53;;;;;;;19.30;12.43;;;1.40;52.50;;;;;;4994057;28;20394;-71
2021/03/07 00:11:18;;;;;;;16.60;12.02;;;1.20;52.20;;;;;;4994569;28;20398;-71
2021/03/07 00:13:44;;;;;;;20.65;12.07;;;1.10;52.20;;;;;;4994813;28;20721;-72
2021/03/07 00:16:09;;;;;;;21.50;12.77;;;1.10;53.60;;;;;;4994786;28;20442;-72
2021/03/07 00:18:35;;;;;;;22.70;12.50;;;0.90;54.10;;;;;;4994599;28;20465;-71
2021/03/07 00:21:00;;;;;;;21.17;12.73;;;0.80;56.30;;;;;;4994767;28;20390;-71
2021/03/07 00:23:26;;;;;;;22.15;13.80;;;0.70;56.40;;;;;;4995146;28;20442;-71
2021/03/07 00:25:51;;;;;;;19.50;12.20;;;0.60;57.60;;;;;;4994560;28;20386;-71
2021/03/07 00:28:17;;;;;;;24.53;13.70;;;0.70;58.80;;;;;;4995052;28;20390;-71
2021/03/07 00:30:42;;;;;;;19.30;13.10;;;0.60;58.30;;;;;;4994747;28;20436;-70
2021/03/07 00:33:08;;;;;;;21.67;13.03;;;0.40;58.80;;;;;;4995730;28;20422;-72
2021/03/07 00:35:34;;;;;;;21.65;12.93;;;0.40;60.70;;;;;;4977551;28;20394;-72
2021/03/07 00:37:59;;;;;;;19.83;12.50;;;0.70;60.40;;;;;;4994748;28;20448;-71
2021/03/07 00:40:25;;;;;;;20.40;13.20;;;0.70;58.40;;;;;;4993845;28;20391;-71
2021/03/07 00:42:50;;;;;;;23.07;13.20;;;0.60;59.90;;;;;;4992946;28;20741;-71
2021/03/07 00:45:17;;;;;;;24.88;13.60;;;0.50;58.70;;;;;;4993070;28;20394;-72
2021/03/07 00:47:43;;;;;;;19.60;12.98;;;0.50;58.90;;;;;;4993222;28;20387;-73
2021/03/07 00:50:24;;;;;;;21.08;13.80;;;0.30;59.50;;;;;;4992510;28;20386;-71
2021/03/07 00:52:49;;;;;;;19.13;13.32;;;0.20;60.40;;;;;;4992692;28;20395;-71
2021/03/07 00:55:15;;;;;;;19.70;13.30;;;0.10;60.40;;;;;;4992771;28;20405;-73
2021/03/07 00:57:41;;;;;;;21.63;13.50;;;0.10;62.30;;;;;;4992638;28;20465;-70
2021/03/07 01:00:12;;;;;;;24.70;14.17;;;0.20;62.90;;;;;;4992131;28;20796;-71
2021/03/07 01:02:38;;;;;;;20.37;12.97;;;0.10;62.70;;;;;;4992124;28;20402;-71
2021/03/07 01:05:05;;;;;;;20.17;13.63;;;0.00;63.30;;;;;;4992563;28;20474;-72
2021/03/07 01:07:31;;;;;;;21.15;14.00;;;0.00;64.00;;;;;;4992615;28;20398;-72
2021/03/07 01:09:56;;;;;;;21.25;13.82;;;0.10;64.50;;;;;;4992169;28;20872;-72
2021/03/07 01:12:22;;;;;;;22.23;13.77;;;0.40;63.30;;;;;;4992411;28;20726;-72
2021/03/07 01:14:47;;;;;;;21.93;13.80;;;0.30;62.00;;;;;;4992035;28;20401;-71
2021/03/07 01:17:13;;;;;;;19.83;13.73;;;0.30;63.10;;;;;;4992406;28;20410;-72
2021/03/07 01:19:39;;;;;;;22.55;14.05;;;0.50;61.60;;;;;;4992028;28;20407;-71
2021/03/07 01:22:04;;;;;;;22.00;13.93;;;0.60;61.70;;;;;;4991123;28;20473;-71
2021/03/07 01:24:30;;;;;;;26.90;14.23;;;0.40;59.60;;;;;;4992259;28;20386;-71
2021/03/07 01:26:55;;;;;;;21.52;13.93;;;0.40;62.00;;;;;;4991972;28;20404;-71
2021/03/07 01:29:21;;;;;;;19.48;13.50;;;0.80;58.10;;;;;;4992049;28;20885;-71
2021/03/07 01:31:46;;;;;;;21.37;13.50;;;1.00;55.00;;;;;;4992149;28;20485;-72
2021/03/07 01:34:12;;;;;;;21.50;13.93;;;1.00;55.20;;;;;;4992082;28;20412;-71
2021/03/07 01:36:38;;;;;;;22.08;13.70;;;1.10;54.00;;;;;;4992193;28;20443;-71
2021/03/07 01:39:05;;;;;;;23.02;14.48;;;1.10;54.30;;;;;;4993116;28;20415;-71
2021/03/07 01:41:30;;;;;;;24.17;14.90;;;1.00;54.90;;;;;;4993328;28;20880;-71
2021/03/07 01:43:56;;;;;;;24.02;14.07;;;0.80;55.40;;;;;;4993350;28;20390;-71
2021/03/07 01:46:27;;;;;;;22.20;13.20;;;0.70;57.20;;;;;;4994053;28;20473;-71
2021/03/07 01:48:54;;;;;;;20.40;12.70;;;0.80;56.20;;;;;;4993921;28;20387;-70
2021/03/07 01:51:21;;;;;;;19.77;12.73;;;0.90;54.00;;;;;;4993700;28;20406;-70
2021/03/07 01:53:47;;;;;;;20.30;12.25;;;0.90;53.40;;;;;;4992593;28;20410;-69
2021/03/07 01:56:13;;;;;;;22.23;13.10;;;0.90;52.40;;;;;;4994240;28;20390;-70
2021/03/07 01:58:42;;;;;;;20.02;13.65;;;0.80;54.20;;;;;;4994152;28;20493;-71
2021/03/07 02:01:08;;;;;;;19.98;12.60;;;0.50;54.80;;;;;;4994281;28;20394;-72
2021/03/07 02:03:34;;;;;;;20.63;13.40;;;0.20;57.90;;;;;;4993980;28;20390;-70
2021/03/07 02:05:59;;;;;;;20.80;13.30;;;-0.10;60.10;;;;;;4994360;28;20781;-73
2021/03/07 02:08:25;;;;;;;20.47;12.80;;;-0.20;63.30;;;;;;4994905;28;20865;-70
2021/03/07 02:11:01;;;;;;;21.05;13.25;;;0.00;64.50;;;;;;4993795;28;20390;-70
2021/03/07 02:13:31;;;;;;;16.67;11.98;;;0.10;63.50;;;;;;4994193;28;20382;-70
2021/03/07 02:16:02;;;;;;;21.90;13.65;;;0.20;63.70;;;;;;4994859;28;20401;-71
2021/03/07 02:18:28;;;;;;;22.92;14.57;;;0.10;62.00;;;;;;4994301;28;20764;-71
2021/03/07 02:20:54;;;;;;;21.00;13.30;;;-0.10;63.00;;;;;;4993302;28;20382;-70
2021/03/07 02:23:22;;;;;;;18.55;12.40;;;-0.30;64.30;;;;;;4993676;28;20383;-71
2021/03/07 02:25:50;;;;;;;17.60;13.10;;;-0.40;65.50;;;;;;4993565;28;20390;-70
2021/03/07 02:28:17;;;;;;;19.40;13.18;;;-0.50;66.30;;;;;;4993678;28;20394;-70
2021/03/07 02:30:43;;;;;;;20.15;11.60;;;-0.50;67.90;;;;;;4993039;28;20485;-70
2021/03/07 02:33:18;;;;;;;20.58;11.40;;;-0.40;69.00;;;;;;4997225;28;20406;-71
2021/03/07 02:35:48;;;;;;;15.02;11.30;;;-0.50;68.40;;;;;;5000358;28;20397;-70
2021/03/07 02:38:19;;;;;;;17.85;10.95;;;-0.60;68.50;;;;;;5000718;28;20421;-71
2021/03/07 02:40:48;;;;;;;17.67;10.70;;;-0.50;70.20;;;;;;4999675;28;20382;-72
2021/03/07 02:43:15;;;;;;;15.85;10.07;;;-0.20;67.50;;;;;;4999677;28;20383;-71
2021/03/07 02:45:43;;;;;;;16.65;9.55;;;-0.20;66.60;;;;;;5000009;28;20474;-71
2021/03/07 02:48:12;;;;;;;19.27;11.50;;;-0.30;66.50;;;;;;4999819;28;20382;-71
2021/03/07 02:50:40;;;;;;;16.10;10.77;;;-0.50;67.10;;;;;;4999784;28;20398;-71
2021/03/07 02:53:10;;;;;;;16.50;10.77;;;-0.60;68.60;;;;;;5000461;28;20445;-71
2021/03/07 02:55:38;;;;;;;15.10;10.15;;;-0.80;69.50;;;;;;5000261;28;20480;-71
2021/03/07 02:58:07;;;;;;;13.70;9.73;;;-0.70;70.50;;;;;;4999801;28;20457;-70
2021/03/07 03:00:35;;;;;;;13.70;9.80;;;-0.70;71.00;;;;;;4999927;28;20386;-72
2021/03/07 03:03:07;;;;;;;13.60;9.20;;;-0.70;71.40;;;;;;5000479;28;20394;-71
2021/03/07 03:05:33;;;;;;;19.13;10.65;;;-0.70;71.10;;;;;;5000231;28;20422;-70
2021/03/07 03:08:01;;;;;;;12.35;9.10;;;-0.70;71.00;;;;;;4999740;28;20410;-71
2021/03/07 03:10:29;;;;;;;13.13;9.18;;;-0.60;73.10;;;;;;4999492;28;20440;-71
2021/03/07 03:12:55;;;;;;;13.82;8.73;;;-0.40;71.70;;;;;;4999971;28;20399;-70
2021/03/07 03:15:22;;;;;;;14.70;8.57;;;-0.40;68.10;;;;;;4999686;28;20433;-71
2021/03/07 03:17:51;;;;;;;12.65;9.80;;;-0.60;68.20;;;;;;4982615;28;20409;-70
2021/03/07 03:20:20;;;;;;;15.93;10.48;;;-0.70;69.50;;;;;;4999544;28;20876;-70
2021/03/07 03:22:47;;;;;;;16.00;9.63;;;-0.80;70.80;;;;;;4998077;28;20393;-71
2021/03/07 03:25:13;;;;;;;13.05;9.80;;;-0.70;71.30;;;;;;4999433;28;20872;-71
2021/03/07 03:27:39;;;;;;;14.38;9.30;;;-0.80;71.80;;;;;;4999390;28;20697;-70
2021/03/07 03:30:26;;;;;;;14.73;9.82;;;-0.80;72.80;;;;;;4981890;28;20379;-71
2021/03/07 03:32:52;;;;;;;13.77;9.82;;;-0.80;72.40;;;;;;4999778;28;20406;-71
2021/03/07 03:35:19;;;;;;;13.98;9.73;;;-0.80;72.10;;;;;;5000465;28;20383;-70
2021/03/07 03:37:46;;;;;;;14.15;9.68;;;-0.90;72.30;;;;;;4999766;28;20379;-71
2021/03/07 03:40:19;;;;;;;16.25;9.80;;;-0.80;71.80;;;;;;4999750;28;20406;-70
2021/03/07 03:42:50;;;;;;;17.65;11.05;;;-0.90;72.40;;;;;;4999677;28;20385;-71
2021/03/07 03:45:17;;;;;;;14.53;10.00;;;-0.50;72.10;;;;;;4996426;28;20849;-71
2021/03/07 03:47:46;;;;;;;15.65;10.73;;;-0.60;70.20;;;;;;4996929;28;20893;-71
2021/03/07 03:50:12;;;;;;;15.27;9.80;;;-0.80;70.00;;;;;;4995633;28;20449;-71
2021/03/07 03:52:39;;;;;;;16.77;10.32;;;-0.90;70.40;;;;;;4995413;28;20852;-71
2021/03/07 03:55:07;;;;;;;14.15;10.30;;;-0.90;71.90;;;;;;4995276;28;20430;-71
2021/03/07 03:57:35;;;;;;;16.95;10.32;;;-1.00;71.80;;;;;;4995734;28;20388;-71
2021/03/07 04:00:04;;;;;;;15.37;10.30;;;-1.00;72.30;;;;;;4979031;28;20420;-71
2021/03/07 04:02:34;;;;;;;15.75;10.77;;;-1.00;73.50;;;;;;4996625;28;20394;-72
2021/03/07 04:05:04;;;;;;;17.75;11.50;;;-1.10;73.00;;;;;;4996913;28;20402;-71
2021/03/07 04:07:31;;;;;;;13.88;10.60;;;-1.20;73.80;;;;;;4996497;28;20387;-70
2021/03/07 04:09:57;;;;;;;17.80;10.73;;;-1.30;74.20;;;;;;4996018;28;20485;-70
2021/03/07 04:12:24;;;;;;;16.23;9.68;;;-1.20;75.30;;;;;;4996244;28;20406;-70
2021/03/07 04:14:52;;;;;;;17.83;10.00;;;-1.10;75.10;;;;;;4997012;28;20757;-71
2021/03/07 04:17:25;;;;;;;16.33;10.35;;;-1.10;75.50;;;;;;4997160;28;20481;-70
2021/03/07 04:19:55;;;;;;;13.60;9.70;;;-1.00;75.30;;;;;;4997095;28;20418;-72
2021/03/07 04:22:22;;;;;;;13.95;10.15;;;-0.80;74.80;;;;;;4998126;28;20771;-71
2021/03/07 04:24:48;;;;;;;12.13;9.18;;;-0.50;71.50;;;;;;4979600;28;20876;-70
2021/03/07 04:27:15;;;;;;;14.25;9.82;;;-0.60;70.60;;;;;;4996054;28;20394;-72
2021/03/07 04:29:42;;;;;;;15.75;9.70;;;-0.80;70.00;;;;;;4996011;28;20402;-70
2021/03/07 04:32:10;;;;;;;13.00;9.40;;;-0.90;70.50;;;;;;4997120;28;20534;-71
2021/03/07 04:34:36;;;;;;;19.20;11.20;;;-0.90;72.60;;;;;;4997530;28;20461;-71
2021/03/07 04:37:03;;;;;;;12.57;9.90;;;-0.90;72.00;;;;;;4997576;28;20403;-70
2021/03/07 04:39:29;;;;;;;16.65;11.50;;;-1.00;72.80;;;;;;4996750;28;20407;-71
2021/03/07 04:41:55;;;;;;;18.35;12.18;;;-1.20;73.90;;;;;;4996973;28;20391;-71
2021/03/07 04:44:20;;;;;;;17.83;11.00;;;-1.30;75.00;;;;;;4996858;28;20413;-70
2021/03/07 04:46:46;;;;;;;16.05;10.60;;;-1.30;75.60;;;;;;4996943;28;20466;-71
2021/03/07 04:49:11;;;;;;;19.80;12.57;;;-1.20;77.00;;;;;;4997135;28;20455;-72
2021/03/07 04:51:37;;;;;;;15.93;10.90;;;-1.20;75.30;;;;;;4997155;28;20378;-70
2021/03/07 04:54:03;;;;;;;19.00;11.40;;;-1.30;74.90;;;;;;4996797;28;20753;-71
2021/03/07 04:56:30;;;;;;;17.65;12.32;;;-1.20;75.10;;;;;;4997334;28;20504;-70
2021/03/07 04:58:56;;;;;;;18.70;11.55;;;-1.20;75.30;;;;;;4995310;28;20414;-70
2021/03/07 05:01:22;;;;;;;17.98;11.27;;;-1.30;75.80;;;;;;4995992;28;20922;-70
2021/03/07 05:03:48;;;;;;;15.17;10.23;;;-1.30;76.40;;;;;;4995628;28;20390;-70
2021/03/07 05:06:14;;;;;;;13.73;10.50;;;-1.40;76.70;;;;;;4994728;28;20397;-71
2021/03/07 05:08:40;;;;;;;14.45;10.05;;;-1.40;77.50;;;;;;4995315;28;20763;-70
2021/03/07 05:11:06;;;;;;;18.55;11.85;;;-1.40;77.50;;;;;;4995567;28;20473;-70
2021/03/07 05:13:31;;;;;;;18.23;12.20;;;-1.40;77.80;;;;;;4995857;28;20426;-71
2021/03/07 05:15:57;;;;;;;15.07;11.00;;;-1.40;78.30;;;;;;4995509;28;20390;-71
2021/03/07 05:18:23;;;;;;;19.23;11.93;;;-1.50;78.50;;;;;;4995158;28;20488;-70
2021/03/07 05:20:48;;;;;;;15.10;10.07;;;-1.40;78.50;;;;;;4994586;28;20469;-70
2021/03/07 05:23:14;;;;;;;18.20;9.97;;;-1.40;78.50;;;;;;4995200;28;20520;-70
2021/03/07 05:25:39;;;;;;;17.63;10.25;;;-1.50;78.50;;;;;;4994456;28;20402;-71
2021/03/07 05:28:05;;;;;;;18.33;10.77;;;-1.40;77.70;;;;;;4994806;28;20398;-71
2021/03/07 05:30:31;;;;;;;17.17;11.00;;;-1.40;77.20;;;;;;4994861;28;20477;-71
2021/03/07 05:32:57;;;;;;;18.77;12.35;;;-1.40;76.90;;;;;;4994629;28;20912;-71
2021/03/07 05:35:23;;;;;;;17.37;11.60;;;-1.50;77.60;;;;;;4994526;28;20415;-70
2021/03/07 05:37:49;;;;;;;15.98;10.63;;;-1.50;78.20;;;;;;4994251;28;20413;-70
2021/03/07 05:40:15;;;;;;;19.20;10.75;;;-1.50;78.10;;;;;;4994500;28;20390;-73
2021/03/07 05:42:41;;;;;;;15.20;10.30;;;-1.60;78.60;;;;;;4994343;28;20394;-70
2021/03/07 05:45:07;;;;;;;16.87;11.53;;;-1.60;78.40;;;;;;4994458;28;20390;-71
2021/03/07 05:47:33;;;;;;;14.93;10.10;;;-1.60;79.40;;;;;;4994221;28;20386;-71
2021/03/07 05:49:59;;;;;;;18.05;10.85;;;-1.60;79.10;;;;;;4993868;28;20404;-71
2021/03/07 05:52:25;;;;;;;15.65;10.40;;;-1.60;78.60;;;;;;4994392;28;20387;-71
2021/03/07 05:54:56;;;;;;;15.40;10.63;;;-1.40;78.90;;;;;;4993966;28;20394;-71
2021/03/07 05:57:22;;;;;;;17.60;10.80;;;-1.10;76.30;;;;;;4994399;28;20437;-70
2021/03/07 05:59:49;;;;;;;16.58;11.00;;;-1.20;74.20;;;;;;4993600;28;20406;-70
2021/03/07 06:02:15;;;;;;;12.75;9.30;;;-1.40;74.00;;;;;;4993716;28;20422;-72
2021/03/07 06:04:50;;;;;;;15.83;10.63;;;-1.50;74.80;;;;;;4994141;28;20964;-73
2021/03/07 06:07:16;;;;;;;16.73;11.15;;;-1.50;76.40;;;;;;4992881;28;20382;-70
2021/03/07 06:09:42;;;;;;;19.27;11.10;;;-1.50;76.90;;;;;;4992839;28;20468;-71
2021/03/07 06:12:15;;;;;;;16.25;11.30;;;-1.50;76.90;;;;;;4993056;28;20390;-71
2021/03/07 06:14:43;;;;;;;14.30;10.32;;;-1.50;77.00;;;;;;4993418;28;20397;-70
2021/03/07 06:17:14;;;;;;;15.05;9.57;;;-1.50;76.90;;;;;;4987238;28;20458;-70
2021/03/07 06:20:13;;;;;;;18.48;10.40;;;-1.50;76.50;;;;;;4984349;28;20499;-71
2021/03/07 06:22:40;;;;;;;14.65;10.70;;;-1.40;75.60;;;;;;4958208;28;20479;-71
2021/03/07 06:25:12;;;;;;;16.23;10.10;;;-1.50;75.60;;;;;;4972091;28;20563;-71
2021/03/07 06:27:38;;;;;;;16.13;10.73;;;-1.40;75.80;;;;;;4971405;28;20475;-70
2021/03/07 06:30:08;;;;;;;15.18;10.90;;;-1.40;75.90;;;;;;4971530;28;20396;-71
2021/03/07 06:32:57;;;;;;;16.90;10.52;;;-1.40;75.00;;;;;;4978705;28;20782;-70
2021/03/07 06:35:25;;;;;;;16.95;11.30;;;-1.40;75.30;;;;;;4991279;28;20398;-71
2021/03/07 06:38:01;;;;;;;16.17;10.80;;;-1.30;75.30;;;;;;4986842;28;20408;-71
2021/03/07 06:40:39;;;;;;;19.25;11.18;;;-1.30;74.70;;;;;;4970432;28;20914;-71
2021/03/07 06:43:17;;;;;;;15.05;10.73;;;-1.30;74.10;;;;;;4970080;28;20424;-70
2021/03/07 06:45:44;;;;;;;17.02;11.65;;;-1.20;74.20;;;;;;4986197;28;20399;-71
2021/03/07 06:48:10;;;;;;;18.98;10.75;;;-1.10;73.00;;;;;;4990401;28;20390;-71
2021/03/07 06:50:58;;;;;;;19.25;10.45;;;-1.00;73.30;;;;;;4989053;28;20477;-72
2021/03/07 06:53:33;;;;;;;14.93;10.20;;;-1.00;72.40;;;;;;4989396;28;20406;-72
2021/03/07 06:55:59;;;;;;;16.85;11.20;;;-1.00;70.10;;;;;;4988809;28;20445;-71
2021/03/07 06:58:25;;;;;;;16.67;10.77;;;-0.90;70.40;;;;;;4990826;28;20442;-71
2021/03/07 07:00:51;;;;;;;14.50;10.75;;;-0.80;70.10;;;;;;4990396;28;20880;-72
2021/03/07 07:03:17;;;;;;;16.80;11.13;;;-0.70;69.80;;;;;;4989963;28;20429;-71
2021/03/07 07:05:47;;;;;;;15.82;10.52;;;-0.60;69.20;;;;;;4987256;28;20403;-71
2021/03/07 07:08:15;;;;;;;17.70;10.63;;;-0.50;66.90;;;;;;4998126;28;20448;-72
2021/03/07 07:10:53;;;;;;;16.90;10.97;;;-0.40;66.30;;;;;;5010125;28;20465;-71
2021/03/07 07:13:19;;;;;;;13.40;10.80;;;-0.30;66.30;;;;;;4973739;28;20756;-71
2021/03/07 07:16:08;;;;;;;17.17;11.10;;;-0.10;65.60;;;;;;4984147;28;20416;-71
2021/03/07 07:18:42;;;;;;;14.80;10.70;;;0.20;63.70;;;;;;4985603;28;20496;-70
2021/03/07 07:21:10;;;;;;;14.52;10.10;;;0.30;61.50;;;;;;4993527;28;20398;-71
2021/03/07 07:23:36;;;;;;;17.45;10.20;;;0.40;60.70;;;;;;4993543;28;20421;-70
2021/03/07 07:26:04;;;;;;;13.70;10.45;;;0.50;60.20;;;;;;4993646;28;20448;-71
2021/03/07 07:28:32;;;;;;;15.05;10.20;;;0.60;59.40;;;;;;4957564;28;20498;-71
2021/03/07 07:31:06;;;;;;;14.93;10.20;;;0.60;59.10;;;;;;4990669;28;20441;-72
2021/03/07 07:33:52;;;;;;;21.30;11.60;;;0.90;58.90;;;;;;5013578;28;20405;-72
2021/03/07 07:36:55;;;;;;;18.13;11.55;;;1.20;55.10;;;;;;5007230;28;20456;-72
2021/03/07 07:39:33;;;;;;;19.38;11.30;;;1.10;54.90;;;;;;4980709;28;20800;-70
2021/03/07 07:42:16;;;;;;;16.67;11.75;;;1.10;55.30;;;;;;4992605;28;20742;-72
2021/03/07 07:44:42;;;;;;;17.67;11.60;;;1.20;55.30;;;;;;4988708;28;20751;-73
2021/03/07 07:47:08;;;;;;;16.30;11.10;;;1.20;55.30;;;;;;4990280;28;20456;-72
2021/03/07 07:49:47;;;;;;;17.20;11.00;;;1.30;55.70;;;;;;4988830;28;20780;-72
2021/03/07 07:52:24;;;;;;;17.45;12.90;;;1.40;55.90;;;;;;4993364;28;20405;-73
2021/03/07 07:55:11;;;;;;;16.90;11.55;;;1.50;55.50;;;;;;4992542;28;20926;-72
2021/03/07 07:57:41;;;;;;;18.57;12.60;;;1.70;54.40;;;;;;4993119;28;20415;-73
2021/03/07 08:00:20;;;;;;;18.67;11.73;;;1.90;52.20;;;;;;4992796;28;20491;-74
2021/03/07 08:02:45;;;;;;;16.25;11.48;;;1.90;52.10;;;;;;4993131;28;21141;-73
2021/03/07 08:05:20;;;;;;;17.52;13.00;;;2.00;50.70;;;;;;4992400;28;20474;-74
2021/03/07 08:08:04;;;;;;;17.40;11.65;;;2.00;49.10;;;;;;4984068;28;20426;-73
2021/03/07 08:10:39;;;;;;;21.83;11.20;;;2.20;46.50;;;;;;4975309;28;20407;-73
2021/03/07 08:13:06;;;;;;;16.30;11.70;;;2.30;43.40;;;;;;4984800;28;20395;-73
2021/03/07 08:15:32;;;;;;;14.20;10.60;;;2.30;42.60;;;;;;4974372;28;20458;-73
2021/03/07 08:17:58;;;;;;;18.07;10.97;;;2.40;42.10;;;;;;4983901;28;20489;-73
2021/03/07 08:20:42;;;;;;;13.77;10.98;;;2.60;39.90;;;;;;4977511;28;20436;-71
2021/03/07 08:23:09;;;;;;;14.15;10.50;;;2.70;38.20;;;;;;4987338;28;20434;-73
2021/03/07 08:25:47;;;;;;;15.75;11.10;;;2.80;37.30;;;;;;4992723;28;20970;-72
2021/03/07 08:28:30;;;;;;;18.88;12.57;;;2.90;36.40;;;;;;4978691;28;20388;-73
2021/03/07 08:31:25;;;;;;;14.45;10.95;;;3.00;36.00;;;;;;4984599;28;20908;-73
2021/03/07 08:33:50;;;;;;;15.38;11.00;;;3.10;35.00;;;;;;4946792;28;20442;-71
2021/03/07 08:36:23;;;;;;;12.82;9.75;;;3.20;34.20;;;;;;4986190;28;20399;-73
2021/03/07 08:38:54;;;;;;;15.60;10.85;;;3.30;32.90;;;;;;4992002;28;20404;-72
2021/03/07 08:41:22;;;;;;;15.60;10.23;;;3.30;32.20;;;;;;4990316;28;20452;-71
2021/03/07 08:43:50;;;;;;;13.88;10.18;;;3.30;31.30;;;;;;4973634;28;20405;-73
2021/03/07 08:46:20;;;;;;;15.40;10.63;;;3.60;31.70;;;;;;4992452;28;20796;-72
2021/03/07 08:48:48;;;;;;;16.13;11.48;;;3.60;30.90;;;;;;4991144;28;20415;-73
2021/03/07 08:51:16;;;;;;;18.17;10.60;;;3.70;30.10;;;;;;4991764;28;20551;-73
2021/03/07 08:53:44;;;;;;;17.05;10.40;;;3.70;29.70;;;;;;4990917;28;20402;-72
2021/03/07 08:56:11;;;;;;;17.55;11.77;;;3.80;28.60;;;;;;5011883;28;20397;-72
2021/03/07 08:58:40;;;;;;;15.25;11.25;;;3.90;28.80;;;;;;5001896;28;20789;-71
2021/03/07 09:01:07;;;;;;;11.68;9.20;;;3.90;28.70;;;;;;4991938;28;20390;-71
2021/03/07 09:03:33;;;;;;;12.87;9.00;;;4.20;28.10;;;;;;5005450;28;20446;-72
2021/03/07 09:06:12;;;;;;;14.05;9.82;;;4.30;27.10;;;;;;5001920;28;20398;-73
2021/03/07 09:08:37;;;;;;;13.50;9.43;;;4.50;25.60;;;;;;5007631;28;20910;-73
2021/03/07 09:11:08;;;;;;;12.27;9.65;;;4.80;23.00;;;;;;4994756;28;20402;-72
2021/03/07 09:13:33;;;;;;;13.85;10.05;;;4.80;22.80;;;;;;4992965;28;20502;-72
2021/03/07 09:16:04;;;;;;;23.80;10.27;;;4.70;22.60;;;;;;4979900;28;20404;-73
2021/03/07 09:18:35;;;;;;;14.88;10.90;;;4.70;24.40;;;;;;4984248;28;20411;-71
2021/03/07 09:21:03;;;;;;;14.05;10.48;;;4.60;24.10;;;;;;4988761;28;20758;-73
2021/03/07 09:23:37;;;;;;;12.10;9.90;;;4.90;24.70;;;;;;4983999;28;20402;-72
2021/03/07 09:26:11;;;;;;;16.67;11.00;;;5.10;24.70;;;;;;4991722;28;20915;-73
2021/03/07 09:28:42;;;;;;;22.73;12.60;;;5.20;25.50;;;;;;4991309;28;20445;-73
2021/03/07 09:31:16;;;;;;;17.17;11.75;;;5.00;25.90;;;;;;4986160;28;20400;-72
2021/03/07 09:33:49;;;;;;;13.97;10.40;;;5.10;26.70;;;;;;4988610;28;20406;-74
2021/03/07 09:36:16;;;;;;;17.92;11.07;;;5.30;26.00;;;;;;4980779;28;20822;-73
2021/03/07 09:38:49;;;;;;;16.67;11.53;;;5.40;25.80;;;;;;4983559;28;20408;-73
2021/03/07 09:41:18;;;;;;;16.35;11.23;;;5.60;27.20;;;;;;4991895;28;20421;-73
2021/03/07 09:43:46;;;;;;;14.60;11.45;;;5.80;27.30;;;;;;4990251;28;20429;-73
2021/03/07 09:46:12;;;;;;;15.75;11.05;;;5.90;26.70;;;;;;4994114;28;20401;-72
2021/03/07 09:48:39;;;;;;;17.90;11.30;;;6.00;25.90;;;;;;4991510;28;20435;-72
2021/03/07 09:51:10;;;;;;;19.27;11.88;;;5.90;26.20;;;;;;4992511;28;20412;-74
2021/03/07 09:53:37;;;;;;;14.18;12.00;;;5.90;27.30;;;;;;4981692;28;20433;-72
2021/03/07 09:56:03;;;;;;;16.23;11.70;;;5.80;27.90;;;;;;4993022;28;20413;-74
2021/03/07 09:58:37;;;;;;;17.67;11.80;;;6.00;27.70;;;;;;4990083;28;20908;-74
2021/03/07 10:01:06;;;;;;;17.35;12.45;;;6.00;27.30;;;;;;4989876;28;20918;-71
2021/03/07 10:03:34;;;;;;;21.37;13.03;;;5.90;29.20;;;;;;4979974;28;20417;-72
2021/03/07 10:06:05;;;;;;;18.03;11.73;;;5.90;29.00;;;;;;4988755;28;20423;-72
2021/03/07 10:08:33;;;;;;;18.92;11.40;;;5.90;28.20;;;;;;4985449;28;20418;-72
2021/03/07 10:11:14;;;;;;;22.15;12.90;;;6.00;28.50;;;;;;4994011;28;20471;-72
2021/03/07 10:13:41;;;;;;;16.00;11.18;;;6.10;29.40;;;;;;4972550;28;20407;-74
2021/03/07 10:16:08;;;;;;;13.45;8.70;;;6.30;26.50;;;;;;4990198;28;20468;-72
2021/03/07 10:18:34;;;;;;;9.95;7.40;;;6.20;24.70;;;;;;4978737;28;20410;-73
2021/03/07 10:20:59;;;;;;;12.07;7.47;;;6.10;24.70;;;;;;4990210;28;20915;-74
2021/03/07 10:23:28;;;;;;;10.70;7.32;;;6.00;25.40;;;;;;4976008;28;20398;-72
2021/03/07 10:25:54;;;;;;;10.48;7.32;;;6.00;26.50;;;;;;4988351;28;20437;-73
2021/03/07 10:28:21;;;;;;;11.73;7.22;;;6.20;26.00;;;;;;4987774;28;20496;-73
2021/03/07 10:30:49;;;;;;;8.57;6.80;;;6.40;25.50;;;;;;4994647;28;20840;-73
2021/03/07 10:33:29;;;;;;;11.18;7.13;;;6.50;24.50;;;;;;4989939;28;20421;-73
2021/03/07 10:36:13;;;;;;;11.27;7.28;;;6.50;23.70;;;;;;4989594;28;20418;-73
2021/03/07 10:39:08;;;;;;;10.13;7.30;;;6.60;24.20;;;;;;4990195;28;20406;-73
2021/03/07 10:41:33;;;;;;;11.13;7.72;;;6.80;23.80;;;;;;4989895;28;20414;-73
2021/03/07 10:44:06;;;;;;;15.18;8.65;;;7.30;22.60;;;;;;4972792;28;20406;-74
2021/03/07 10:46:37;;;;;;;11.75;8.45;;;7.50;21.60;;;;;;4977331;28;20450;-73
2021/03/07 10:49:05;;;;;;;12.55;8.52;;;7.70;20.30;;;;;;4976264;28;20450;-73
2021/03/07 10:51:31;;;;;;;10.17;8.50;;;8.00;19.30;;;;;;4974089;28;20427;-75
2021/03/07 10:53:57;;;;;;;11.98;8.32;;;8.30;18.70;;;;;;4991111;28;20409;-75
2021/03/07 10:56:29;;;;;;;9.85;7.20;;;8.20;17.30;;;;;;4994463;28;20441;-74
2021/03/07 10:58:55;;;;;;;10.07;6.80;;;7.60;17.80;;;;;;4993967;28;20414;-75
2021/03/07 11:01:20;;;;;;;7.82;6.50;;;7.20;19.10;;;;;;4997218;28;20549;-75
2021/03/07 11:03:46;;;;;;;9.50;7.40;;;7.00;19.50;;;;;;4993262;28;20394;-75
2021/03/07 11:06:12;;;;;;;11.48;7.68;;;6.90;19.40;;;;;;4994524;28;20402;-75
2021/03/07 11:08:38;;;;;;;10.87;8.90;;;6.70;19.80;;;;;;4994847;28;20452;-74
2021/03/07 11:11:05;;;;;;;14.93;10.77;;;6.70;19.60;;;;;;4995532;28;20494;-74
2021/03/07 11:13:31;;;;;;;12.25;10.25;;;6.60;18.80;;;;;;4994763;28;20743;-75
2021/03/07 11:15:57;;;;;;;11.63;9.80;;;6.70;19.70;;;;;;4994824;28;20382;-75
2021/03/07 11:18:23;;;;;;;11.63;9.93;;;6.90;20.00;;;;;;4994611;28;20429;-74
2021/03/07 11:20:49;;;;;;;18.92;14.85;;;7.20;19.50;;;;;;4994588;28;20733;-74
2021/03/07 11:23:15;;;;;;;17.10;14.25;;;7.50;17.70;;;;;;4994834;28;20429;-74
2021/03/07 11:25:41;;;;;;;19.73;15.45;;;7.80;18.60;;;;;;4976896;28;20481;-74
2021/03/07 11:28:07;;;;;;;17.67;14.18;;;8.20;17.30;;;;;;4994905;28;20450;-73
2021/03/07 11:30:33;;;;;;;17.92;15.95;;;8.60;16.70;;;;;;4995820;28;20897;-74
2021/03/07 11:32:59;;;;;;;21.10;15.13;;;8.70;15.70;;;;;;4992914;28;20421;-75
2021/03/07 11:35:24;;;;;;;22.48;16.33;;;8.40;14.60;;;;;;4993486;28;20473;-78
2021/03/07 11:37:52;;;;;;;19.98;16.35;;;8.30;15.40;;;;;;4993000;28;20398;-72
2021/03/07 11:40:18;;;;;;;18.55;16.35;;;8.10;15.30;;;;;;4993469;28;20422;-73
2021/03/07 11:42:43;;;;;;;18.03;13.90;;;7.70;16.20;;;;;;4993476;28;20919;-74
2021/03/07 11:45:10;;;;;;;20.40;14.50;;;7.20;17.30;;;;;;4994157;28;20432;-74
2021/03/07 11:47:35;;;;;;;18.35;14.55;;;6.90;18.10;;;;;;4993992;28;20390;-74
2021/03/07 11:50:01;;;;;;;22.27;16.60;;;6.70;17.90;;;;;;4980417;28;20801;-76
2021/03/07 11:52:26;;;;;;;19.20;14.60;;;6.70;17.80;;;;;;5009927;28;20449;-72
2021/03/07 11:54:52;;;;;;;14.80;12.30;;;6.80;17.60;;;;;;5020268;28;20419;-71
2021/03/07 11:57:18;;;;;;;17.50;13.48;;;6.80;16.80;;;;;;5027656;28;20402;-70
2021/03/07 11:59:43;;;;;;;20.10;16.42;;;6.90;17.70;;;;;;5012013;28;20419;-74
2021/03/07 12:02:09;;;;;;;19.33;15.50;;;7.00;16.80;;;;;;5012037;28;20401;-73
2021/03/07 12:04:34;;;;;;;20.05;14.80;;;7.10;15.80;;;;;;5012768;28;20377;-72
2021/03/07 12:07:00;;;;;;;19.60;15.00;;;7.10;16.50;;;;;;5012943;28;20747;-72
2021/03/07 12:09:26;;;;;;;18.83;15.52;;;6.90;15.20;;;;;;5013037;28;20407;-71
2021/03/07 12:11:51;;;;;;;18.97;15.73;;;6.80;15.30;;;;;;5013414;28;20389;-70
2021/03/07 12:14:17;;;;;;;16.50;14.53;;;7.00;15.90;;;;;;5012127;28;20459;-71
2021/03/07 12:16:44;;;;;;;19.27;14.90;;;7.00;15.70;;;;;;5011406;28;20397;-71
2021/03/07 12:19:10;;;;;;;18.13;13.48;;;7.10;15.40;;;;;;5011734;28;20427;-71
2021/03/07 12:21:36;;;;;;;16.00;13.57;;;7.10;14.50;;;;;;5012460;28;20393;-72
2021/03/07 12:24:02;;;;;;;15.38;12.43;;;7.00;14.50;;;;;;5012057;28;20500;-73
2021/03/07 12:26:27;;;;;;;16.58;13.50;;;7.10;14.20;;;;;;5012503;28;20811;-70
2021/03/07 12:28:53;;;;;;;17.10;13.47;;;7.10;14.70;;;;;;5012583;28;20396;-72
2021/03/07 12:31:18;;;;;;;14.90;11.90;;;7.30;14.60;;;;;;5012384;28;20785;-71
2021/03/07 12:33:44;;;;;;;15.00;12.33;;;7.40;14.00;;;;;;5011594;28;20443;-71
2021/03/07 12:36:09;;;;;;;15.97;12.40;;;7.50;14.20;;;;;;5011658;28;20403;-70
2021/03/07 12:38:35;;;;;;;16.40;12.60;;;7.70;13.70;;;;;;5011248;28;20782;-70
2021/03/07 12:41:01;;;;;;;20.17;13.10;;;7.70;14.10;;;;;;5010348;28;20428;-71
2021/03/07 12:43:26;;;;;;;17.73;12.65;;;7.70;15.00;;;;;;5010363;28;20425;-70